Time;durP1;ratioP1;P1;durP2;ratioP2;P2;SDS_P1;SDS_P2;PMS_P1;PMS_P2;Temp;Humidity;BMP_temperature;BMP_pressure;BME280_temperature;BME280_humidity;BME280_pressure;Samples;Min_cycle;Max_cycle;Signal;HPM_P1;HPM_P2
2022/12/09 00:01:11;;;;;;;15.00;6.53;;;;;;;-144.47;97.17;64443.19;5007775;28;20058;-67
2022/12/09 00:03:36;;;;;;;13.85;6.50;;;;;;;-144.47;97.36;64477.09;5008705;28;20085;-66
2022/12/09 00:06:11;;;;;;;14.43;6.57;;;;;;;-144.47;97.44;64504.97;5003548;28;20109;-67
2022/12/09 00:08:37;;;;;;;19.08;7.57;;;;;;;-144.47;97.63;64514.94;5001899;28;20050;-65
2022/12/09 00:11:02;;;;;;;16.35;7.40;;;;;;;-144.47;97.74;64530.91;5003699;28;20033;-66
2022/12/09 00:13:28;;;;;;;15.80;7.38;;;;;;;-144.47;97.60;64520.94;5006931;28;20036;-65
2022/12/09 00:15:54;;;;;;;15.98;8.60;;;;;;;-144.47;97.83;64534.88;5006051;28;20014;-65
2022/12/09 00:18:20;;;;;;;19.90;7.45;;;;;;;-144.47;97.93;64508.97;5008627;28;20376;-66
2022/12/09 00:20:45;;;;;;;16.63;6.90;;;;;;;-144.47;97.75;64562.78;4998365;28;20028;-64
2022/12/09 00:23:10;;;;;;;16.92;7.38;;;;;;;-144.47;98.04;64622.56;5008723;28;20541;-66
2022/12/09 00:25:36;;;;;;;17.15;7.03;;;;;;;-144.47;98.06;64592.69;5008512;28;20081;-63
2022/12/09 00:28:01;;;;;;;17.67;7.53;;;;;;;-144.47;98.16;64614.59;5007879;28;20140;-66
2022/12/09 00:30:27;;;;;;;16.33;7.50;;;;;;;-144.47;98.10;64604.63;5000591;28;20065;-67
2022/12/09 00:32:52;;;;;;;16.30;6.88;;;;;;;-144.47;97.59;64606.63;4996031;28;20107;-65
2022/12/09 00:35:17;;;;;;;12.98;5.57;;;;;;;-144.47;97.49;64596.66;5008387;28;20025;-67
2022/12/09 00:37:43;;;;;;;11.65;5.30;;;;;;;-144.47;97.61;64634.53;5006204;28;20112;-64
2022/12/09 00:40:08;;;;;;;8.85;4.30;;;;;;;-144.47;97.81;64634.53;4997141;28;20062;-64
2022/12/09 00:42:34;;;;;;;10.35;5.25;;;;;;;-144.47;97.75;64664.44;5007333;28;20029;-67
2022/12/09 00:44:59;;;;;;;13.18;6.78;;;;;;;-144.47;97.98;64658.44;5008489;28;20030;-67
2022/12/09 00:47:24;;;;;;;15.27;6.35;;;;;;;-144.47;97.98;64702.28;5007304;28;20033;-65
2022/12/09 00:49:50;;;;;;;16.02;6.40;;;;;;;-144.47;98.07;64714.25;4998417;28;20034;-66
2022/12/09 00:52:15;;;;;;;15.15;6.70;;;;;;;-144.47;98.21;64780.03;4996160;28;20128;-65
2022/12/09 00:54:40;;;;;;;17.02;6.90;;;;;;;-144.47;98.35;64754.13;4993987;28;20037;-64
2022/12/09 00:57:06;;;;;;;14.05;6.47;;;;;;;-144.47;98.25;64772.06;5006500;28;20046;-65
2022/12/09 00:59:31;;;;;;;12.63;5.88;;;;;;;-144.47;98.18;64809.94;4997609;28;20025;-63
2022/12/09 01:01:56;;;;;;;13.45;6.15;;;;;;;-144.47;98.31;64801.94;5003223;28;20072;-64
2022/12/09 01:04:23;;;;;;;13.73;5.65;;;;;;;-144.47;98.51;64803.94;5007668;28;20139;-64
2022/12/09 01:06:49;;;;;;;18.75;7.75;;;;;;;-144.47;98.25;64776.03;5007293;28;20435;-67
2022/12/09 01:09:15;;;;;;;12.85;5.55;;;;;;;-144.47;98.45;64829.84;5007530;28;20555;-66
2022/12/09 01:11:40;;;;;;;15.40;7.25;;;;;;;-144.47;98.71;64857.75;5007544;28;20156;-66
2022/12/09 01:14:06;;;;;;;15.70;6.80;;;;;;;-144.47;98.41;64833.84;5007979;28;20574;-66
2022/12/09 01:16:32;;;;;;;18.10;6.78;;;;;;;-144.47;98.38;64835.84;5007510;28;20044;-66
2022/12/09 01:19:01;;;;;;;18.15;7.43;;;;;;;-144.47;98.32;64805.94;4996287;28;20040;-65
2022/12/09 01:21:27;;;;;;;15.65;6.78;;;;;;;-144.47;98.81;64877.69;5007717;28;20117;-65
2022/12/09 01:23:53;;;;;;;29.92;13.85;;;;;;;-144.47;98.86;64895.63;5008271;28;20049;-64
2022/12/09 01:26:18;;;;;;;23.63;9.85;;;;;;;-144.47;98.83;64915.56;5007394;28;20502;-66
2022/12/09 01:28:45;;;;;;;27.67;11.48;;;;;;;-144.47;98.51;64901.63;5007822;28;20128;-63
2022/12/09 01:31:13;;;;;;;25.52;11.02;;;;;;;-144.47;98.25;64895.63;5008051;28;20033;-64
2022/12/09 01:33:39;;;;;;;22.00;9.10;;;;;;;-144.47;98.20;64885.66;5007856;28;20042;-67
2022/12/09 01:36:17;;;;;;;21.80;7.78;;;;;;;-144.47;98.51;64907.59;5007075;28;20025;-64
2022/12/09 01:38:43;;;;;;;20.15;9.50;;;;;;;-144.47;98.46;64897.63;5007683;28;20018;-64
2022/12/09 01:41:09;;;;;;;21.60;8.07;;;;;;;-144.47;98.23;64875.69;5007676;28;20314;-66
2022/12/09 01:43:34;;;;;;;19.45;8.90;;;;;;;-144.47;98.35;64885.66;5009271;28;20101;-66
2022/12/09 01:46:00;;;;;;;27.17;10.80;;;;;;;-144.47;98.50;64877.69;5011370;28;20034;-67
2022/12/09 01:48:35;;;;;;;22.30;9.18;;;;;;;-144.47;98.41;64881.69;5011808;28;20026;-64
2022/12/09 01:51:08;;;;;;;22.20;9.10;;;;;;;-144.47;98.58;64901.63;5011229;28;20060;-67
2022/12/09 01:53:37;;;;;;;19.40;9.52;;;;;;;-144.47;98.81;64925.53;5010738;28;20065;-66
2022/12/09 01:56:07;;;;;;;30.42;13.13;;;;;;;-144.47;98.57;64873.72;4999486;28;20026;-66
2022/12/09 01:58:33;;;;;;;23.77;11.05;;;;;;;-144.47;98.73;64907.59;4996641;28;20038;-66
2022/12/09 02:00:59;;;;;;;25.83;10.50;;;;;;;-144.47;98.55;64909.59;5004836;28;20030;-65
2022/12/09 02:03:24;;;;;;;28.08;12.23;;;;;;;-144.47;98.68;64925.53;5011513;28;20077;-67
2022/12/09 02:05:50;;;;;;;28.88;11.55;;;;;;;-144.47;98.51;64897.63;5010888;28;20097;-67
2022/12/09 02:08:17;;;;;;;24.70;10.65;;;;;;;-144.47;98.82;64973.38;5010090;28;20030;-64
2022/12/09 02:11:07;;;;;;;23.02;11.05;;;;;;;-144.47;99.03;64997.28;5010813;28;20064;-65
2022/12/09 02:14:12;;;;;;;27.15;11.20;;;;;;;-144.47;98.89;64997.28;5011060;28;20018;-66
2022/12/09 02:17:05;;;;;;;25.83;10.40;;;;;;;-144.47;99.21;65013.22;5010137;28;20034;-65
2022/12/09 02:19:52;;;;;;;21.85;10.38;;;;;;;-144.47;99.24;65043.13;5004996;28;20115;-65
2022/12/09 02:22:25;;;;;;;24.13;10.95;;;;;;;-144.47;98.80;65057.09;5010557;28;20097;-67
2022/12/09 02:25:14;;;;;;;30.88;13.95;;;;;;;-144.47;99.05;65019.22;5010147;28;20040;-66
2022/12/09 02:28:17;;;;;;;25.45;11.40;;;;;;;-144.47;99.11;65037.16;5010155;28;20077;-66
2022/12/09 02:30:49;;;;;;;26.75;11.18;;;;;;;-144.47;99.00;65071.03;5010474;28;20589;-65
2022/12/09 02:33:25;;;;;;;21.73;10.25;;;;;;;-144.47;99.06;65092.97;5010826;28;20030;-67
2022/12/09 02:36:01;;;;;;;26.90;11.57;;;;;;;-144.47;99.55;65150.78;5010663;28;20030;-67
2022/12/09 02:38:30;;;;;;;25.42;9.82;;;;;;;-144.47;99.03;65112.91;5010194;28;20480;-67
2022/12/09 02:41:05;;;;;;;;;;;;;;;-144.47;98.85;65098.94;5010502;28;20025;-65
2022/12/09 02:43:35;;;;;;;21.73;8.77;;;;;;;-144.47;99.16;65132.84;5010444;28;19913;-67
2022/12/09 02:46:03;;;;;;;25.92;8.90;;;;;;;-144.47;99.15;65152.75;5010345;28;20037;-67
2022/12/09 02:48:34;;;;;;;21.45;10.15;;;;;;;-144.47;99.15;65122.88;5010088;28;20076;-65
2022/12/09 02:51:04;;;;;;;21.05;8.40;;;;;;;-144.47;99.19;65140.81;5010447;28;20399;-66
2022/12/09 02:53:30;;;;;;;21.52;9.13;;;;;;;-144.47;99.20;65140.81;5010175;28;20113;-65
2022/12/09 02:55:56;;;;;;;19.20;8.70;;;;;;;-144.47;99.25;65140.81;5002945;28;20180;-65
2022/12/09 02:58:22;;;;;;;22.48;8.65;;;;;;;-144.47;99.13;65136.81;5009648;28;20026;-67
2022/12/09 03:00:47;;;;;;;18.48;9.15;;;;;;;-144.47;99.22;65150.78;5002793;28;20103;-65
2022/12/09 03:03:16;;;;;;;18.73;7.72;;;;;;;-144.47;99.03;65146.78;5010209;28;20045;-66
2022/12/09 03:05:50;;;;;;;21.60;8.73;;;;;;;-144.47;98.90;65116.88;5010266;28;20084;-67
2022/12/09 03:08:21;;;;;;;19.33;8.30;;;;;;;-144.47;98.92;65144.78;4998920;28;20330;-67
2022/12/09 03:11:06;;;;;;;20.42;7.90;;;;;;;-144.47;98.65;65142.78;5008639;28;20018;-66
2022/12/09 03:13:50;;;;;;;18.77;8.02;;;;;;;-144.47;98.77;65210.56;5009633;28;20325;-63
2022/12/09 03:16:35;;;;;;;20.75;8.07;;;;;;;-144.47;98.73;65174.69;5010144;28;20030;-66
2022/12/09 03:19:09;;;;;;;19.30;8.60;;;;;;;-144.47;98.72;65142.78;5010166;28;20112;-67
2022/12/09 03:21:41;;;;;;;18.77;8.38;;;;;;;-144.47;98.39;65130.84;5022858;23;20034;-67
2022/12/09 03:24:09;;;;;;;18.65;8.20;;;;;;;-144.47;98.33;65154.75;5010737;28;20177;-69
2022/12/09 03:26:37;;;;;;;22.73;9.38;;;;;;;-144.47;97.99;65112.91;5011029;28;20053;-69
2022/12/09 03:29:07;;;;;;;21.55;9.88;;;;;;;-144.47;98.08;65102.94;5011543;28;20030;-70
2022/12/09 03:31:35;;;;;;;24.48;9.60;;;;;;;-144.47;98.12;65085.00;5011437;28;20038;-70
2022/12/09 03:34:04;;;;;;;19.80;9.07;;;;;;;-144.47;98.27;65128.84;5011428;28;20416;-70
2022/12/09 03:36:37;;;;;;;20.92;9.63;;;;;;;-144.47;98.63;65150.78;5011959;28;20022;-70
2022/12/09 03:39:06;;;;;;;22.15;8.85;;;;;;;-144.47;98.86;65180.66;5001667;28;20056;-68
2022/12/09 03:41:36;;;;;;;20.40;8.32;;;;;;;-144.47;99.09;65240.47;5011870;28;20056;-69
2022/12/09 03:44:15;;;;;;;19.98;8.95;;;;;;;-144.47;98.76;65208.56;5011972;28;20034;-69
2022/12/09 03:46:41;;;;;;;15.65;7.53;;;;;;;-144.47;98.36;65184.66;5010339;28;20084;-70
2022/12/09 03:49:07;;;;;;;16.95;7.68;;;;;;;-144.47;98.46;65176.69;5012389;28;20021;-70
2022/12/09 03:51:41;;;;;;;20.90;8.38;;;;;;;-144.47;98.20;65162.72;5011634;28;20025;-67
2022/12/09 03:54:23;;;;;;;18.20;7.85;;;;;;;-144.47;98.13;65196.63;5011812;28;20061;-70
2022/12/09 03:56:53;;;;;;;19.42;8.05;;;;;;;-144.47;98.79;65184.66;5002264;28;20010;-68
2022/12/09 03:59:20;;;;;;;20.90;7.82;;;;;;;-144.47;98.23;65168.72;5002249;28;20028;-68
2022/12/09 04:01:46;;;;;;;19.67;8.30;;;;;;;-144.47;98.30;65182.66;5010974;28;20018;-70
2022/12/09 04:04:11;;;;;;;15.35;6.55;;;;;;;-144.47;98.30;65154.75;5010521;28;20032;-70
2022/12/09 04:06:38;;;;;;;18.65;7.43;;;;;;;-144.47;98.30;65148.78;5011098;28;20054;-69
2022/12/09 04:09:04;;;;;;;19.63;8.15;;;;;;;-144.47;97.38;65106.91;5002718;28;20534;-70
2022/12/09 04:11:30;;;;;;;19.08;8.85;;;;;;;-144.47;97.97;65144.78;5009561;28;20030;-69
2022/12/09 04:13:56;;;;;;;26.33;8.40;;;;;;;-144.47;98.18;65196.63;5011239;28;20018;-67
2022/12/09 04:16:21;;;;;;;19.25;8.00;;;;;;;-144.47;98.76;65212.56;5010730;28;20054;-69
2022/12/09 04:18:46;;;;;;;16.48;6.68;;;;;;;-144.47;99.13;65294.28;5010682;28;20052;-69
2022/12/09 04:21:12;;;;;;;20.80;7.35;;;;;;;-144.47;99.79;65409.91;5011212;28;20045;-70
2022/12/09 04:23:38;;;;;;;23.83;7.72;;;;;;;-144.47;100.00;65409.91;5010722;28;20379;-69
2022/12/09 04:26:04;;;;;;;19.88;8.73;;;;;;;-144.47;100.00;65489.66;5010908;28;20064;-72
2022/12/09 04:28:30;;;;;;;16.05;6.75;;;;;;;-144.47;100.00;65539.50;5010709;28;20036;-69
2022/12/09 04:30:56;;;;;;;20.65;7.93;;;;;;;-144.47;100.00;65547.47;5011032;28;20364;-69
2022/12/09 04:33:22;;;;;;;21.92;7.47;;;;;;;-144.47;100.00;65551.47;5010862;28;20028;-71
2022/12/09 04:35:47;;;;;;;24.90;9.20;;;;;;;-144.47;100.00;65561.44;5010514;28;20029;-70
2022/12/09 04:38:12;;;;;;;21.00;7.90;;;;;;;-144.47;100.00;65517.56;5009520;28;20052;-71
2022/12/09 04:40:38;;;;;;;22.65;8.98;;;;;;;-144.47;100.00;65521.56;5010524;28;20029;-71
2022/12/09 04:43:03;;;;;;;23.65;8.30;;;;;;;-144.47;100.00;65497.63;5008487;28;20025;-71
2022/12/09 04:45:29;;;;;;;24.60;8.98;;;;;;;-144.47;100.00;65495.63;5010124;28;20136;-69
2022/12/09 04:47:56;;;;;;;19.25;7.30;;;;;;;-144.47;99.96;65429.84;5009552;28;20041;-68
2022/12/09 04:50:21;;;;;;;20.90;7.82;;;;;;;-144.47;99.67;65423.88;5008642;28;20060;-70
2022/12/09 04:52:47;;;;;;;21.42;8.52;;;;;;;-144.47;99.37;65413.91;5009122;28;20391;-68
2022/12/09 04:55:13;;;;;;;23.00;9.05;;;;;;;-144.47;99.21;65384.00;5002731;28;20022;-70
2022/12/09 04:57:38;;;;;;;17.27;7.80;;;;;;;-144.47;99.38;65417.88;5004714;28;20021;-72
2022/12/09 05:00:05;;;;;;;27.13;10.30;;;;;;;-144.47;99.45;65403.94;4998320;28;20038;-69
2022/12/09 05:02:30;;;;;;;18.65;8.20;;;;;;;-144.47;98.87;65368.06;5001116;28;20022;-69
2022/12/09 05:04:56;;;;;;;18.05;6.88;;;;;;;-144.47;98.80;65304.25;5009850;28;20037;-69
2022/12/09 05:07:22;;;;;;;19.83;7.60;;;;;;;-144.47;98.48;65314.22;5007796;28;20491;-69
2022/12/09 05:09:48;;;;;;;17.02;7.53;;;;;;;-144.47;98.62;65340.16;5009286;28;20403;-70
2022/12/09 05:12:13;;;;;;;14.82;6.47;;;;;;;-144.47;98.41;65320.22;5009592;28;20053;-71
2022/12/09 05:14:38;;;;;;;23.70;7.70;;;;;;;-144.47;98.68;65350.13;5009610;28;20026;-68
2022/12/09 05:17:06;;;;;;;15.98;6.78;;;;;;;-144.47;98.73;65352.09;5009345;28;20225;-69
2022/12/09 05:19:31;;;;;;;17.27;7.82;;;;;;;-144.47;98.85;65362.06;5009530;28;20032;-70
2022/12/09 05:21:56;;;;;;;18.65;7.85;;;;;;;-144.47;99.21;65405.94;5009320;28;20030;-68
2022/12/09 05:24:22;;;;;;;19.95;7.22;;;;;;;-144.47;99.39;65405.94;5008996;28;20032;-73
2022/12/09 05:26:47;;;;;;;23.85;8.73;;;;;;;-144.47;100.00;65485.66;5009353;28;20054;-69
2022/12/09 05:29:12;;;;;;;32.67;10.85;;;;;;;-144.47;99.82;65491.66;5009074;28;20049;-72
2022/12/09 05:31:38;;;;;;;29.80;10.35;;;;;;;-144.47;99.86;65499.63;5009633;28;20061;-69
2022/12/09 05:34:03;;;;;;;18.52;8.07;;;;;;;-144.47;100.00;65553.44;5009748;28;20018;-68
2022/12/09 05:36:28;;;;;;;16.38;7.20;;;;;;;-144.47;100.00;65605.28;5010252;28;20598;-71
2022/12/09 05:38:54;;;;;;;25.20;9.70;;;;;;;-144.47;100.00;65595.31;5008777;28;20104;-68
2022/12/09 05:41:21;;;;;;;16.80;7.40;;;;;;;-144.47;100.00;65657.13;5008040;28;20018;-68
2022/12/09 05:43:47;;;;;;;19.17;7.57;;;;;;;-144.47;100.00;65681.03;5007709;28;20083;-71
2022/12/09 05:46:13;;;;;;;22.48;9.13;;;;;;;-144.47;100.00;65695.00;5001155;28;20034;-67
2022/12/09 05:48:38;;;;;;;17.05;7.38;;;;;;;-144.47;100.00;65762.78;5002217;28;20096;-67
2022/12/09 05:51:07;;;;;;;19.25;8.43;;;;;;;-144.47;100.00;65746.84;5009056;28;20033;-69
2022/12/09 05:53:33;;;;;;;20.17;8.88;;;;;;;-144.47;100.00;65784.72;5004079;28;20032;-68
2022/12/09 05:55:59;;;;;;;24.83;9.88;;;;;;;-144.47;100.00;65776.75;5005795;28;20041;-68
2022/12/09 05:58:24;;;;;;;24.77;9.15;;;;;;;-144.47;100.00;65804.66;5000046;28;20536;-66
2022/12/09 06:00:49;;;;;;;22.48;8.23;;;;;;;-144.47;100.00;65866.47;5009422;28;20084;-72
2022/12/09 06:03:15;;;;;;;26.52;10.00;;;;;;;-144.47;100.00;65784.72;5009290;28;20109;-69
2022/12/09 06:05:41;;;;;;;28.67;9.57;;;;;;;-144.47;100.00;65822.59;5008138;28;20026;-69
2022/12/09 06:08:07;;;;;;;26.80;10.23;;;;;;;-144.47;100.00;65794.69;5006158;28;20117;-69
2022/12/09 06:10:33;;;;;;;30.02;11.05;;;;;;;-144.47;100.00;65786.72;5008706;28;20065;-68
2022/12/09 06:12:59;;;;;;;24.98;9.95;;;;;;;-144.47;100.00;65766.78;5009130;28;20129;-69
2022/12/09 06:15:24;;;;;;;24.85;10.32;;;;;;;-144.47;100.00;65802.66;5009504;28;20112;-68
2022/12/09 06:17:50;;;;;;;23.50;10.20;;;;;;;-144.47;100.00;65744.84;5008961;28;20068;-69
2022/12/09 06:20:17;;;;;;;26.90;11.43;;;;;;;-144.47;100.00;65609.28;5010847;28;20059;-68
2022/12/09 06:22:42;;;;;;;30.20;11.23;;;;;;;-144.47;99.91;65569.41;5010056;28;20087;-70
2022/12/09 06:25:08;;;;;;;31.90;12.32;;;;;;;-144.47;100.00;65595.31;5004749;28;20101;-71
2022/12/09 06:27:33;;;;;;;30.58;12.05;;;;;;;-144.47;99.97;65571.41;5007594;28;20026;-69
2022/12/09 06:29:59;;;;;;;32.40;11.77;;;;;;;-144.47;100.00;66037.94;4995635;28;20463;-69
2022/12/09 06:32:24;;;;;;;32.83;11.95;;;;;;;-144.47;100.00;65828.56;5007283;28;20030;-67
2022/12/09 06:34:49;;;;;;;39.58;13.90;;;;;;;-144.47;100.00;65649.16;5012307;28;20032;-67
2022/12/09 06:37:15;;;;;;;33.35;13.43;;;;;;;-144.47;100.00;65708.97;5008110;28;20026;-71
2022/12/09 06:39:41;;;;;;;39.28;13.57;;;;;;;-144.47;100.00;65671.06;5011903;28;20029;-69
2022/12/09 06:42:06;;;;;;;29.77;11.88;;;;;;;-144.47;100.00;65864.47;5012182;28;20023;-69
2022/12/09 06:44:32;;;;;;;29.42;12.10;;;;;;;-144.47;100.00;65734.88;5027449;28;20028;-70
2022/12/09 06:46:57;;;;;;;37.80;12.48;;;;;;;-144.47;100.00;65671.06;5012012;28;20472;-70
2022/12/09 06:49:23;;;;;;;36.10;13.07;;;;;;;-144.47;99.40;65489.66;5011998;28;20076;-68
2022/12/09 06:51:48;;;;;;;34.60;13.65;;;;;;;-144.47;98.21;65370.03;5012169;28;20032;-69
2022/12/09 06:54:13;;;;;;;31.73;13.25;;;;;;;-144.47;98.21;65316.22;5011636;28;20037;-69
2022/12/09 06:56:39;;;;;;;32.75;13.07;;;;;;;-144.47;99.00;65384.00;5001937;28;20476;-70
2022/12/09 06:59:06;;;;;;;33.70;12.48;;;;;;;-144.47;99.03;65360.06;5004793;28;20486;-70
2022/12/09 07:01:31;;;;;;;32.72;13.20;;;;;;;-144.47;99.76;65401.94;5012225;28;20026;-67
2022/12/09 07:03:57;;;;;;;34.08;12.13;;;;;;;-144.47;100.00;65411.91;4993947;28;20120;-66
2022/12/09 07:06:25;;;;;;;30.48;12.10;;;;;;;-144.47;99.97;65384.00;5007665;28;20404;-69
2022/12/09 07:08:50;;;;;;;37.47;13.48;;;;;;;-144.47;99.80;65374.03;5003133;28;20034;-70
2022/12/09 07:11:15;;;;;;;36.03;14.13;;;;;;;-144.47;99.18;65284.31;5011313;28;20034;-68
2022/12/09 07:13:41;;;;;;;44.65;13.70;;;;;;;-144.47;99.49;65188.66;5003895;28;20045;-67
2022/12/09 07:16:07;;;;;;;39.88;13.48;;;;;;;-144.47;100.00;65170.69;5006657;28;20569;-70
2022/12/09 07:18:32;;;;;;;41.40;15.27;;;;;;;-144.47;100.00;65134.81;5002703;28;20160;-67
2022/12/09 07:20:57;;;;;;;38.83;14.50;;;;;;;-144.47;100.00;64993.31;5011922;28;20423;-70
2022/12/09 07:23:23;;;;;;;35.25;12.75;;;;;;;-144.47;100.00;64797.97;5003462;28;20166;-72
2022/12/09 07:25:57;;;;;;;33.95;12.90;;;;;;;-144.47;100.00;64590.69;5012022;28;20022;-70
2022/12/09 07:28:23;;;;;;;34.28;11.32;;;;;;;-144.47;100.00;64453.16;5003194;28;20022;-70
2022/12/09 07:30:48;;;;;;;37.40;13.23;;;;;;;-144.47;100.00;64363.50;5005290;28;20088;-70
2022/12/09 07:33:13;;;;;;;35.33;13.13;;;;;;;-144.47;100.00;64321.63;5011604;28;20030;-69
2022/12/09 07:35:39;;;;;;;32.35;11.45;;;;;;;-144.47;100.00;64225.97;5004054;28;20129;-69
2022/12/09 07:38:04;;;;;;;46.33;16.15;;;;;;;-144.47;100.00;63943.00;5006684;28;20629;-65
2022/12/09 07:40:29;;;;;;;38.60;13.80;;;;;;;-144.47;100.00;63697.94;5004727;28;20026;-72
2022/12/09 07:42:55;;;;;;;33.72;12.63;;;;;;;-144.47;100.00;63676.00;4993703;28;20096;-69
2022/12/09 07:45:21;;;;;;;32.28;12.55;;;;;;;-144.47;100.00;63566.44;4995207;28;20014;-68
2022/12/09 07:47:46;;;;;;;31.15;12.15;;;;;;;-144.47;100.00;63309.41;4994564;28;20141;-71
2022/12/09 07:50:12;;;;;;;32.42;12.82;;;;;;;-144.47;100.00;63241.66;4993516;28;20026;-67
2022/12/09 07:52:37;;;;;;;35.97;13.95;;;;;;;-144.47;100.00;63235.69;4992033;28;20029;-68
2022/12/09 07:55:03;;;;;;;41.30;13.57;;;;;;;-144.47;100.00;63152.03;4995275;28;20118;-70
2022/12/09 07:57:28;;;;;;;35.05;13.55;;;;;;;-144.47;100.00;62954.81;4994053;28;20059;-73
2022/12/09 07:59:55;;;;;;;39.55;13.88;;;;;;;-144.47;100.00;62737.69;4993467;28;20065;-67
2022/12/09 08:02:21;;;;;;;44.25;15.93;;;;;;;-144.47;100.00;62480.72;4993785;28;20212;-67
2022/12/09 08:04:46;;;;;;;39.97;14.32;;;;;;;-144.47;100.00;62355.25;4992409;28;20022;-69
2022/12/09 08:07:11;;;;;;;38.65;13.52;;;;;;;-144.47;100.00;62311.44;4993175;28;20096;-67
2022/12/09 08:09:37;;;;;;;31.25;11.85;;;;;;;-144.47;100.00;62255.66;4991022;28;20112;-68
2022/12/09 08:12:02;;;;;;;40.70;13.60;;;;;;;-144.47;100.00;62042.56;4991246;28;20055;-68
2022/12/09 08:14:28;;;;;;;42.05;14.63;;;;;;;-144.47;100.00;61781.69;4993119;28;20434;-68
2022/12/09 08:16:53;;;;;;;31.02;14.23;;;;;;;-144.47;100.00;61490.94;4988783;28;20019;-71
2022/12/09 08:19:19;;;;;;;37.63;12.35;;;;;;;-144.47;100.00;61644.28;4993168;28;20022;-67
2022/12/09 08:21:44;;;;;;;40.83;15.45;;;;;;;-144.47;100.00;61755.78;4992032;28;20034;-70
2022/12/09 08:24:10;;;;;;;38.22;14.73;;;;;;;-144.47;100.00;61486.97;4994625;28;20041;-70
2022/12/09 08:26:37;;;;;;;37.58;14.45;;;;;;;-144.47;100.00;61200.25;4991059;28;20042;-68
2022/12/09 08:29:12;;;;;;;36.80;14.45;;;;;;;-144.47;100.00;60913.53;4993613;28;20054;-67
2022/12/09 08:31:39;;;;;;;35.00;12.63;;;;;;;-144.47;100.00;60821.97;4992387;28;20045;-71
2022/12/09 08:34:05;;;;;;;35.20;12.52;;;;;;;-144.47;100.00;60879.69;4997732;28;20400;-66
2022/12/09 08:36:30;;;;;;;32.55;12.82;;;;;;;-144.47;100.00;60790.13;4989862;28;20064;-68
2022/12/09 08:39:00;;;;;;;33.45;13.18;;;;;;;-144.47;100.00;60740.34;4991996;28;20049;-68
2022/12/09 08:41:34;;;;;;;30.50;12.25;;;;;;;-144.47;100.00;60692.56;4989153;28;20519;-69
2022/12/09 08:44:04;;;;;;;37.50;13.75;;;;;;;-144.47;100.00;60626.88;4990691;28;20049;-70
2022/12/09 08:46:31;;;;;;;30.13;11.30;;;;;;;-144.47;100.00;60517.38;4992132;28;20119;-70
2022/12/09 08:48:56;;;;;;;35.40;15.10;;;;;;;-144.47;99.65;60368.09;4994855;28;20076;-70
2022/12/09 08:51:22;;;;;;;32.63;12.65;;;;;;;-144.47;99.24;60252.63;4987711;28;20433;-69
2022/12/09 08:53:47;;;;;;;42.53;15.00;;;;;;;-144.47;98.86;60200.88;4994562;28;20511;-67
2022/12/09 08:56:14;;;;;;;42.33;16.15;;;;;;;-144.47;98.58;60216.81;4988855;28;20018;-67
2022/12/09 08:58:40;;;;;;;35.92;15.43;;;;;;;-144.47;98.97;60198.91;4992781;28;20726;-71
2022/12/09 09:01:07;;;;;;;38.03;14.55;;;;;;;-144.47;99.33;60145.16;4990839;28;20065;-67
2022/12/09 09:03:32;;;;;;;33.50;13.50;;;;;;;-144.47;99.55;60206.84;4994820;28;20041;-71
2022/12/09 09:06:03;;;;;;;35.00;13.15;;;;;;;-144.47;99.75;60194.91;4993805;28;20062;-70
2022/12/09 09:08:28;;;;;;;34.35;13.98;;;;;;;-144.47;99.55;60184.97;4988967;28;20029;-69
2022/12/09 09:10:54;;;;;;;37.17;12.70;;;;;;;-144.47;99.91;60143.16;4988260;28;20040;-67
2022/12/09 09:13:19;;;;;;;31.52;13.07;;;;;;;-144.47;99.85;60125.25;4990137;28;20161;-69
2022/12/09 09:15:44;;;;;;;33.15;13.30;;;;;;;-144.47;99.05;60121.28;4992913;28;20053;-69
2022/12/09 09:18:10;;;;;;;39.97;14.45;;;;;;;-144.47;99.00;60087.44;4990947;28;20513;-69
2022/12/09 09:20:35;;;;;;;42.28;14.45;;;;;;;-144.47;98.52;60077.47;4993618;28;20066;-67
2022/12/09 09:23:00;;;;;;;37.42;14.45;;;;;;;-144.47;98.58;60047.63;4993457;28;20038;-71
2022/12/09 09:25:26;;;;;;;29.52;12.02;;;;;;;-144.47;98.44;59991.91;4994960;28;20026;-72
2022/12/09 09:27:51;;;;;;;28.60;13.00;;;;;;;-144.47;98.24;60017.78;4994915;28;20033;-70
2022/12/09 09:30:17;;;;;;;31.30;12.20;;;;;;;-144.47;98.26;60039.66;4995825;28;20634;-70
2022/12/09 09:32:42;;;;;;;32.90;13.07;;;;;;;-144.47;98.82;60194.91;4993487;28;20038;-69
2022/12/09 09:35:08;;;;;;;26.20;12.55;;;;;;;-144.47;98.58;60292.44;4994347;28;20045;-70
2022/12/09 09:37:33;;;;;;;28.80;12.80;;;;;;;-144.47;99.12;60198.91;4994958;28;20815;-67
2022/12/09 09:39:58;;;;;;;29.98;12.48;;;;;;;-144.47;99.03;60214.81;4995233;28;20095;-69
2022/12/09 09:42:34;;;;;;;25.52;11.65;;;;;;;-144.47;98.97;60212.81;4990037;28;20578;-69
2022/12/09 09:45:05;;;;;;;22.10;10.05;;;;;;;-144.47;98.73;60196.91;4993413;28;20120;-69
2022/12/09 09:47:37;;;;;;;26.40;11.75;;;;;;;-144.47;98.49;60232.72;4994527;28;20034;-69
2022/12/09 09:50:21;;;;;;;29.45;11.90;;;;;;;-144.47;98.82;60023.75;4994767;28;20054;-70
2022/12/09 09:52:51;;;;;;;33.30;12.05;;;;;;;-144.47;98.89;59958.06;4988266;28;20109;-71
2022/12/09 09:55:18;;;;;;;23.08;10.63;;;;;;;-144.47;98.27;60011.78;4992404;28;20026;-70
2022/12/09 09:57:55;;;;;;;29.40;12.52;;;;;;;-144.47;98.30;59981.94;4993259;28;20021;-69
2022/12/09 10:00:26;;;;;;;36.13;13.35;;;;;;;-144.47;97.25;59999.84;4995636;28;20022;-69
2022/12/09 10:02:56;;;;;;;32.95;13.27;;;;;;;-144.47;97.06;59958.06;4992956;28;20075;-66
2022/12/09 10:05:34;;;;;;;28.27;12.15;;;;;;;-144.47;96.68;59898.34;4991259;28;20034;-67
2022/12/09 10:08:35;;;;;;;31.30;13.82;;;;;;;-144.47;96.46;59997.88;4997803;28;20030;-68
2022/12/09 10:11:13;;;;;;;27.02;11.98;;;;;;;-144.47;96.79;60077.47;4995141;28;20046;-67
2022/12/09 10:14:13;;;;;;;31.20;13.00;;;;;;;-144.47;97.42;60099.38;4996881;28;20038;-68
2022/12/09 10:16:51;;;;;;;29.95;13.23;;;;;;;-144.47;97.19;59946.13;4998044;28;20057;-70
2022/12/09 10:19:27;;;;;;;29.43;12.67;;;;;;;-144.47;95.68;59950.09;4997330;28;20087;-72
2022/12/09 10:21:54;;;;;;;29.05;13.25;;;;;;;-144.47;95.93;59944.13;4994843;28;20028;-69
2022/12/09 10:24:30;;;;;;;28.70;14.00;;;;;;;-144.47;96.51;59826.69;4997106;28;20096;-68
2022/12/09 10:27:34;;;;;;;40.75;14.05;;;;;;;-144.47;95.92;59914.28;4993540;28;20049;-69
2022/12/09 10:30:05;;;;;;;30.90;14.15;;;;;;;-144.47;95.00;60117.28;4993088;28;20089;-71
2022/12/09 10:32:33;;;;;;;28.10;13.15;;;;;;;-144.47;94.49;60119.28;4994300;28;20038;-70
2022/12/09 10:34:59;;;;;;;36.42;16.25;;;;;;;-144.47;93.96;60005.81;4994932;28;20053;-70
2022/12/09 10:37:34;;;;;;;30.80;13.38;;;;;;;-144.47;93.63;59966.03;4995872;28;20082;-69
2022/12/09 10:40:06;;;;;;;31.45;15.57;;;;;;;-144.47;93.91;59802.81;4996211;28;20046;-69
2022/12/09 10:45:26;;;;;;;27.35;13.27;;;;;;;-144.47;92.94;59918.25;4995252;28;20514;-71
2022/12/09 10:47:51;;;;;;;29.95;14.18;;;;;;;-144.47;94.13;60095.41;4998623;28;20025;-70
2022/12/09 10:50:33;;;;;;;28.55;14.20;;;;;;;-144.47;94.27;60163.06;4998040;28;20035;-69
2022/12/09 10:53:06;;;;;;;29.75;14.57;;;;;;;-144.47;93.92;60177.00;4990881;28;20022;-71
2022/12/09 10:55:37;;;;;;;30.30;13.68;;;;;;;-144.47;94.73;60216.81;4993778;28;20042;-70
2022/12/09 10:58:10;;;;;;;26.38;12.57;;;;;;;-144.47;94.53;60023.75;4994171;28;20022;-68
2022/12/09 11:00:36;;;;;;;29.10;14.25;;;;;;;-144.47;95.02;59989.91;4999327;28;20462;-70
2022/12/09 11:03:01;;;;;;;35.08;14.30;;;;;;;-144.47;95.37;59942.13;4992955;28;20029;-69
2022/12/09 11:05:30;;;;;;;40.60;15.48;;;;;;;-144.47;95.04;60021.75;4995282;28;20042;-71
2022/12/09 11:07:57;;;;;;;41.45;17.88;;;;;;;-144.47;95.03;60226.75;4994432;28;20028;-69
2022/12/09 11:10:25;;;;;;;39.95;16.73;;;;;;;-144.47;95.02;60047.63;5001272;28;20022;-68